Time,TemperatureF,DewpointF,PressureIn,WindDirection,WindDirectionDegrees,WindSpeedMPH,WindSpeedGustMPH,Humidity,HourlyPrecipIn,Conditions,Clouds,dailyrainin,SoftwareType,DateUTC
2013-02-20 00:12:00,19.0,-99.9,29.97,WSW,251,27.0,33.0,-999,-99.99,,,-99.99,,2013-02-20 05:12:00,
2013-02-20 00:43:00,19.0,-99.9,-100.00,WSW,239,21.0,32.0,-999,-99.99,,,-99.99,,2013-02-20 05:43:00,
2013-02-20 00:52:00,19.0,-99.9,29.98,West,260,26.0,32.0,-999,-99.99,,,-99.99,,2013-02-20 05:52:00,
2013-02-20 01:02:00,19.0,-99.9,29.98,WSW,250,25.0,31.0,-999,-99.99,,,-99.99,,2013-02-20 06:02:00,
2013-02-20 01:12:00,-999.0,-99.9,-100.00,WSW,256,28.0,35.0,-999,-99.99,,,-99.99,,2013-02-20 06:12:00,
2013-02-20 01:32:00,18.0,-99.9,29.99,WSW,249,23.0,32.0,-999,-99.99,,,-99.99,,2013-02-20 06:32:00,
2013-02-20 02:11:00,17.0,-99.9,29.99,WSW,242,20.0,32.0,-999,-99.99,,,-99.99,,2013-02-20 07:11:00,
2013-02-20 02:22:00,-999.0,-99.9,-100.00,WSW,247,21.0,29.0,-999,-99.99,,,-99.99,,2013-02-20 07:22:00,
2013-02-20 02:42:00,18.0,-99.9,29.99,WSW,255,24.0,30.0,-999,-99.99,,,-99.99,,2013-02-20 07:42:00,
2013-02-20 02:52:00,18.0,-99.9,29.99,WSW,243,19.0,30.0,-999,-99.99,,,-99.99,,2013-02-20 07:52:00,
2013-02-20 03:11:00,18.0,-99.9,-100.00,WSW,253,23.0,29.0,-999,-99.99,,,-99.99,,2013-02-20 08:11:00,
2013-02-20 03:22:00,-999.0,-99.9,-100.00,WSW,246,20.0,30.0,-999,-99.99,,,-99.99,,2013-02-20 08:22:00,
2013-02-20 03:32:00,19.0,-99.9,29.99,WSW,253,24.0,32.0,-999,-99.99,,,-99.99,,2013-02-20 08:32:00,
2013-02-20 03:42:00,19.0,-99.9,29.99,WSW,256,26.0,31.0,-999,-99.99,,,-99.99,,2013-02-20 08:42:00,
2013-02-20 03:52:00,-999.0,-99.9,-100.00,WSW,251,24.0,31.0,-999,-99.99,,,-99.99,,2013-02-20 08:52:00,
2013-02-20 04:11:00,-999.0,-99.9,-100.00,WSW,251,24.0,32.0,-999,-99.99,,,-99.99,,2013-02-20 09:11:00,
2013-02-20 04:22:00,19.0,-99.9,30.00,WSW,252,25.0,30.0,-999,-99.99,,,-99.99,,2013-02-20 09:22:00,
2013-02-20 04:32:00,19.0,-99.9,30.00,WSW,252,23.0,31.0,-999,-99.99,,,-99.99,,2013-02-20 09:32:00,
2013-02-20 04:42:00,19.0,-99.9,-100.00,WSW,252,25.0,32.0,-999,-99.99,,,-99.99,,2013-02-20 09:42:00,
2013-02-20 05:12:00,18.0,-99.9,30.01,WSW,248,23.0,34.0,-999,-99.99,,,-99.99,,2013-02-20 10:12:00,
2013-02-20 05:32:00,19.0,-99.9,30.02,WSW,252,25.0,31.0,-999,-99.99,,,-99.99,,2013-02-20 10:32:00,
2013-02-20 05:42:00,18.0,-99.9,30.02,WSW,246,22.0,31.0,-999,-99.99,,,-99.99,,2013-02-20 10:42:00,
2013-02-20 05:52:00,-999.0,-99.9,-100.00,WSW,256,28.0,32.0,-999,-99.99,,,-99.99,,2013-02-20 10:52:00,
2013-02-20 06:22:00,18.0,-99.9,30.03,WSW,249,23.0,32.0,-999,-99.99,,,-99.99,,2013-02-20 11:22:00,
2013-02-20 06:42:00,18.0,-99.9,-100.00,WSW,256,25.0,33.0,-999,-99.99,,,-99.99,,2013-02-20 11:42:00,
2013-02-20 07:12:00,18.0,-99.9,-100.00,WSW,244,18.0,30.0,-999,-99.99,,,-99.99,,2013-02-20 12:12:00,
2013-02-20 07:22:00,-999.0,-99.9,-100.00,WSW,247,21.0,29.0,-999,-99.99,,,-99.99,,2013-02-20 12:22:00,
2013-02-20 07:53:00,20.0,-99.9,30.05,WNW,293,30.0,35.0,-999,-99.99,,,-99.99,,2013-02-20 12:53:00,
2013-02-20 08:02:00,20.0,-99.9,30.06,WNW,300,28.0,35.0,-999,-99.99,,,-99.99,,2013-02-20 13:02:00,
2013-02-20 08:12:00,20.0,-99.9,30.06,WNW,302,28.0,34.0,-999,-99.99,,,-99.99,,2013-02-20 13:12:00,
2013-02-20 08:42:00,-999.0,-99.9,-100.00,WNW,292,29.0,35.0,-999,-99.99,,,-99.99,,2013-02-20 13:42:00,
2013-02-20 08:52:00,21.0,-99.9,30.07,North,-999,-999.0,-999.0,-999,-99.99,,,-99.99,,2013-02-20 13:52:00,
2013-02-20 09:11:00,21.0,-99.9,-100.00,WNW,286,34.0,38.0,-999,-99.99,,,-99.99,,2013-02-20 14:11:00,
2013-02-20 09:22:00,-999.0,-99.9,-100.00,WNW,298,28.0,38.0,-999,-99.99,,,-99.99,,2013-02-20 14:22:00,
2013-02-20 09:42:00,20.0,-99.9,-100.00,WNW,284,25.0,32.0,-999,-99.99,,,-99.99,,2013-02-20 14:42:00,
2013-02-20 09:52:00,-999.0,-99.9,-100.00,WNW,299,28.0,35.0,-999,-99.99,,,-99.99,,2013-02-20 14:52:00,
2013-02-20 10:02:00,20.0,-99.9,30.09,WNW,295,27.0,34.0,-999,-99.99,,,-99.99,,2013-02-20 15:02:00,
2013-02-20 10:12:00,20.0,-99.9,30.09,WNW,300,27.0,32.0,-999,-99.99,,,-99.99,,2013-02-20 15:12:00,
2013-02-20 10:42:00,21.0,-99.9,-100.00,WNW,288,30.0,36.0,-999,-99.99,,,-99.99,,2013-02-20 15:42:00,
2013-02-20 10:52:00,-999.0,-99.9,-100.00,WNW,283,26.0,32.0,-999,-99.99,,,-99.99,,2013-02-20 15:52:00,
2013-02-20 11:12:00,21.0,-99.9,30.11,WNW,298,25.0,32.0,-999,-99.99,,,-99.99,,2013-02-20 16:12:00,
2013-02-20 11:22:00,-999.0,-99.9,-100.00,WNW,289,28.0,32.0,-999,-99.99,,,-99.99,,2013-02-20 16:22:00,
2013-02-20 11:32:00,20.0,-99.9,30.12,North,-999,-999.0,-999.0,-999,-99.99,,,-99.99,,2013-02-20 16:32:00,
2013-02-20 11:42:00,20.0,-99.9,30.12,WNW,296,25.0,31.0,-999,-99.99,,,-99.99,,2013-02-20 16:42:00,
2013-02-20 11:52:00,21.0,-99.9,-100.00,WNW,285,27.0,32.0,-999,-99.99,,,-99.99,,2013-02-20 16:52:00,
2013-02-20 12:01:00,21.0,-99.9,30.13,WNW,300,26.0,36.0,-999,-99.99,,,-99.99,,2013-02-20 17:01:00,
2013-02-20 12:12:00,-999.0,-99.9,-100.00,WNW,299,28.0,32.0,-999,-99.99,,,-99.99,,2013-02-20 17:12:00,
2013-02-20 12:22:00,-999.0,-99.9,-100.00,WNW,299,28.0,32.0,-999,-99.99,,,-99.99,,2013-02-20 17:22:00,
2013-02-20 12:32:00,21.0,-99.9,30.13,North,-999,-999.0,-999.0,-999,-99.99,,,-99.99,,2013-02-20 17:32:00,
2013-02-20 12:42:00,21.0,-99.9,30.14,WNW,287,23.0,28.0,-999,-99.99,,,-99.99,,2013-02-20 17:42:00,
2013-02-20 12:52:00,21.0,-99.9,30.14,WNW,289,24.0,29.0,-999,-99.99,,,-99.99,,2013-02-20 17:52:00,
2013-02-20 13:02:00,20.0,-99.9,-100.00,WNW,293,26.0,31.0,-999,-99.99,,,-99.99,,2013-02-20 18:02:00,
2013-02-20 13:11:00,20.0,-99.9,30.14,North,-999,-999.0,-999.0,-999,-99.99,,,-99.99,,2013-02-20 18:11:00,
2013-02-20 13:22:00,20.0,-99.9,30.14,WNW,299,19.0,27.0,-999,-99.99,,,-99.99,,2013-02-20 18:22:00,
2013-02-20 13:42:00,21.0,-99.9,30.14,WNW,303,24.0,30.0,-999,-99.99,,,-99.99,,2013-02-20 18:42:00,
2013-02-20 14:12:00,21.0,-99.9,30.14,West,281,22.0,27.0,-999,-99.99,,,-99.99,,2013-02-20 19:12:00,
2013-02-20 14:21:00,22.0,-99.9,30.14,WNW,297,21.0,27.0,-999,-99.99,,,-99.99,,2013-02-20 19:21:00,
2013-02-20 14:42:00,21.0,-99.9,-100.00,West,279,24.0,30.0,-999,-99.99,,,-99.99,,2013-02-20 19:42:00,
2013-02-20 14:52:00,-999.0,-99.9,-100.00,West,280,20.0,30.0,-999,-99.99,,,-99.99,,2013-02-20 19:52:00,
2013-02-20 15:01:00,21.0,-99.9,-100.00,West,278,23.0,26.0,-999,-99.99,,,-99.99,,2013-02-20 20:01:00,
2013-02-20 15:11:00,21.0,-99.9,30.16,North,-999,-999.0,-999.0,-999,-99.99,,,-99.99,,2013-02-20 20:11:00,
2013-02-20 15:21:00,21.0,-99.9,30.16,West,274,24.0,30.0,-999,-99.99,,,-99.99,,2013-02-20 20:21:00,
2013-02-20 15:31:00,21.0,-99.9,30.16,West,281,20.0,29.0,-999,-99.99,,,-99.99,,2013-02-20 20:31:00,
2013-02-20 15:41:00,-999.0,-99.9,-100.00,WNW,284,23.0,26.0,-999,-99.99,,,-99.99,,2013-02-20 20:41:00,
2013-02-20 15:52:00,-999.0,-99.9,-100.00,WNW,284,23.0,26.0,-999,-99.99,,,-99.99,,2013-02-20 20:52:00,
2013-02-20 16:11:00,-999.0,-99.9,-100.00,WNW,283,20.0,26.0,-999,-99.99,,,-99.99,,2013-02-20 21:11:00,
2013-02-20 16:42:00,22.0,-99.9,30.19,West,279,24.0,28.0,-999,-99.99,,,-99.99,,2013-02-20 21:42:00,
2013-02-20 16:52:00,22.0,-99.9,30.19,North,-999,-999.0,-999.0,-999,-99.99,,,-99.99,,2013-02-20 21:52:00,
2013-02-20 17:02:00,22.0,-99.9,30.19,North,-999,-999.0,-999.0,-999,-99.99,,,-99.99,,2013-02-20 22:02:00,
2013-02-20 17:32:00,22.0,-99.9,-100.00,West,269,22.0,29.0,-999,-99.99,,,-99.99,,2013-02-20 22:32:00,
2013-02-20 17:43:00,22.0,-99.9,-100.00,WNW,285,23.0,29.0,-999,-99.99,,,-99.99,,2013-02-20 22:43:00,
2013-02-20 18:32:00,22.0,-99.9,30.21,West,277,18.0,28.0,-999,-99.99,,,-99.99,,2013-02-20 23:32:00,
2013-02-20 18:43:00,23.0,-99.9,30.21,West,280,20.0,25.0,-999,-99.99,,,-99.99,,2013-02-20 23:43:00,
2013-02-20 18:53:00,-999.0,-99.9,-100.00,West,278,20.0,26.0,-999,-99.99,,,-99.99,,2013-02-20 23:53:00,
2013-02-20 19:03:00,22.0,-99.9,30.21,WNW,283,21.0,26.0,-999,-99.99,,,-99.99,,2013-02-21 00:03:00,
2013-02-20 19:11:00,22.0,-99.9,30.21,WNW,289,21.0,26.0,-999,-99.99,,,-99.99,,2013-02-21 00:11:00,
2013-02-20 19:22:00,-999.0,-99.9,-100.00,WNW,287,16.0,26.0,-999,-99.99,,,-99.99,,2013-02-21 00:22:00,
2013-02-20 19:42:00,22.0,-99.9,30.21,North,-999,-999.0,-999.0,-999,-99.99,,,-99.99,,2013-02-21 00:42:00,
2013-02-20 19:52:00,22.0,-99.9,30.22,WNW,284,22.0,26.0,-999,-99.99,,,-99.99,,2013-02-21 00:52:00,
2013-02-20 20:01:00,22.0,-99.9,30.22,West,281,19.0,23.0,-999,-99.99,,,-99.99,,2013-02-21 01:01:00,
2013-02-20 20:12:00,22.0,-99.9,-100.00,WNW,288,21.0,25.0,-999,-99.99,,,-99.99,,2013-02-21 01:12:00,
2013-02-20 20:32:00,22.0,-99.9,30.22,WNW,294,18.0,24.0,-999,-99.99,,,-99.99,,2013-02-21 01:32:00,
2013-02-20 20:42:00,23.0,-99.9,-100.00,WNW,285,21.0,25.0,-999,-99.99,,,-99.99,,2013-02-21 01:42:00,
2013-02-20 20:52:00,-999.0,-99.9,-100.00,WNW,293,15.0,24.0,-999,-99.99,,,-99.99,,2013-02-21 01:52:00,
2013-02-20 21:02:00,23.0,-99.9,30.22,WNW,297,19.0,24.0,-999,-99.99,,,-99.99,,2013-02-21 02:02:00,
2013-02-20 21:11:00,23.0,-99.9,30.22,North,-999,-999.0,-999.0,-999,-99.99,,,-99.99,,2013-02-21 02:11:00,
2013-02-20 22:12:00,23.0,-99.9,-100.00,WNW,294,18.0,23.0,-999,-99.99,,,-99.99,,2013-02-21 03:12:00,
2013-02-20 22:22:00,-999.0,-99.9,-100.00,WNW,292,16.0,21.0,-999,-99.99,,,-99.99,,2013-02-21 03:22:00,
2013-02-20 22:32:00,22.0,-99.9,30.22,WNW,282,16.0,21.0,-999,-99.99,,,-99.99,,2013-02-21 03:32:00,
2013-02-20 22:42:00,-999.0,-99.9,-100.00,WNW,292,17.0,21.0,-999,-99.99,,,-99.99,,2013-02-21 03:42:00,
2013-02-20 23:01:00,23.0,-99.9,30.22,WNW,299,17.0,23.0,-999,-99.99,,,-99.99,,2013-02-21 04:01:00,
2013-02-20 23:11:00,23.0,-99.9,-100.00,WNW,301,17.0,23.0,-999,-99.99,,,-99.99,,2013-02-21 04:11:00,
2013-02-20 23:32:00,23.0,-99.9,30.22,WNW,294,18.0,23.0,-999,-99.99,,,-99.99,,2013-02-21 04:32:00,
2013-02-20 23:42:00,22.0,-99.9,-100.00,WNW,289,18.0,21.0,-999,-99.99,,,-99.99,,2013-02-21 04:42:00,